Las Cruces International Airport
KLRU : now visible

Airfield :











YOU CAN JOIN US ON...

 
LOGIN :

Register | Disclaimer

   EN    FR    IT 

 









Legend :    VFR   Marginal VFR   IFR   Intensive IFR   Very Intensive IFR
Visi :
Ceiling :
>= 8 km
>= 3000ft
5 to 8 km
1000 to 3000 ft
1500m to 5 km
500 to 1000 ft
800 to 1500m
200 to 500 ft
< 800m
< 200 ft
Symbols :   Thunderstorms  Fog  Heavy snow  Heavy precipitations  Wind > 20 kt






- Airport Elevation : 4456 ft
- IATA code : LRU


KLRU - Las Cruces International

CURRENT METAR :
  • 041555Z AUTO 19007KT 10SM CLR 30/08 A3018 RMK AO2 T03030076

EXPIRED METARs :
  • 041535Z AUTO 00000KT 10SM CLR 29/08 A3018 RMK AO2 T02900083
  • 041515Z AUTO 00000KT 10SM CLR 28/09 A3018 RMK AO2 T02810086
  • 041455Z AUTO 13004KT 10SM CLR 28/09 A3018 RMK AO2 T02760091
  • 041435Z AUTO 08004KT 10SM CLR 28/08 A3018 RMK AO2 T02750081
  • 041415Z AUTO 00000KT 10SM CLR 26/08 A3018 RMK AO2 T02610076
  • 041355Z AUTO 00000KT 10SM CLR 24/08 A3017 RMK AO2 T02430077
  • 041335Z AUTO 28005KT 10SM CLR 23/08 A3017 RMK AO2 T02250080
  • 041315Z AUTO 29004KT 10SM CLR 22/08 A3016 RMK AO2 T02150077

TAF KLRU
Valid from the 04 at 12:00 until the 05 at 12:00 UTC


041120Z 0412/0512 VRB05KT P6SM FEW100 BKN250
FM042100 27007KT P6SM SCT100 SCT250
KZAB FIR / North America



MET'MAP, your aeronautical weather chart ! - Copyright ORBIFLY December 2007 - Disclaimer

ORBIFLY MET'MAP TEAM :

Programming & Development : Alexandra Zaïnal
Concept & original design : Baudouin d'Aumeries
Assistance for programming : Marc-Olivier Méhu
Technical & hardware support : Manuel Goepfert

Contact : metmap@orbifly.com




SOURCES & CREDITS :

   NOAA       Earth
Advisory